Time;durP1;ratioP1;P1;durP2;ratioP2;P2;SDS_P1;SDS_P2;PMS_P1;PMS_P2;Temp;Humidity;BMP_temperature;BMP_pressure;BME280_temperature;BME280_humidity;BME280_pressure;Samples;Min_cycle;Max_cycle;Signal;HPM_P1;HPM_P2
2023/03/12 00:01:29;;;;;;;19.50;9.90;;;;;;;8.53;100.00;98453.40;105887;1292;26512;-73
2023/03/12 00:04:00;;;;;;;18.30;8.90;;;;;;;8.55;100.00;98452.23;105799;1292;22546;-74
2023/03/12 00:06:29;;;;;;;16.30;8.70;;;;;;;8.58;100.00;98449.65;105850;1292;22592;-74
2023/03/12 00:09:03;;;;;;;17.50;9.10;;;;;;;8.59;100.00;98446.18;105823;1292;24245;-76
2023/03/12 00:11:32;;;;;;;17.30;9.10;;;;;;;8.60;100.00;98441.42;105841;1292;22544;-76
2023/03/12 00:14:01;;;;;;;18.80;8.90;;;;;;;8.61;100.00;98439.48;105766;1292;24186;-74
2023/03/12 00:16:30;;;;;;;19.50;9.80;;;;;;;8.62;100.00;98440.77;105779;1292;25486;-76
2023/03/12 00:18:58;;;;;;;18.80;10.60;;;;;;;8.63;100.00;98441.35;104346;1292;1003010;-74
2023/03/12 00:21:28;;;;;;;21.60;11.70;;;;;;;8.63;100.00;98434.89;105874;1292;25432;-74
2023/03/12 00:24:00;;;;;;;20.80;11.50;;;;;;;8.64;100.00;98432.11;105818;1292;26735;-73
2023/03/12 00:26:29;;;;;;;27.50;14.60;;;;;;;8.64;100.00;98429.05;105766;1292;25458;-77
2023/03/12 00:28:58;;;;;;;27.70;14.10;;;;;;;8.65;100.00;98427.28;105611;1292;24049;-77
2023/03/12 00:31:28;;;;;;;30.30;16.70;;;;;;;8.66;100.00;98426.45;105858;1292;22539;-74
2023/03/12 00:34:00;;;;;;;30.50;15.70;;;;;;;8.67;100.00;98426.49;105733;1292;25268;-75
2023/03/12 00:36:30;;;;;;;28.50;16.20;;;;;;;8.68;100.00;98423.61;105843;1292;26538;-74
2023/03/12 00:39:02;;;;;;;29.00;16.40;;;;;;;8.70;100.00;98422.00;105769;1292;25451;-74
2023/03/12 00:41:31;;;;;;;26.00;15.10;;;;;;;8.71;100.00;98412.18;105765;1292;26638;-75
2023/03/12 00:44:00;;;;;;;27.10;14.80;;;;;;;8.71;100.00;98413.17;105790;1292;25448;-75
2023/03/12 00:46:30;;;;;;;29.40;15.00;;;;;;;8.72;100.00;98413.15;105715;1292;25488;-75
2023/03/12 00:48:59;;;;;;;28.10;15.20;;;;;;;8.72;100.00;98406.09;105679;1292;25638;-75
2023/03/12 00:51:28;;;;;;;26.10;13.50;;;;;;;8.72;100.00;98401.77;105750;1292;25520;-76
2023/03/12 00:53:57;;;;;;;25.00;12.90;;;;;;;8.73;100.00;98400.17;105771;1292;25638;-77
2023/03/12 00:56:26;;;;;;;23.60;11.90;;;;;;;8.73;100.00;98397.80;105713;1292;22614;-75
2023/03/12 00:58:54;;;;;;;26.70;13.70;;;;;;;8.73;100.00;98393.00;105966;1292;25528;-76
2023/03/12 01:01:23;;;;;;;23.50;11.80;;;;;;;8.74;100.00;98407.09;105794;1292;22659;-75
2023/03/12 01:03:53;;;;;;;21.00;11.50;;;;;;;8.74;100.00;98399.85;105867;1292;23919;-74
2023/03/12 01:06:23;;;;;;;22.20;11.70;;;;;;;8.75;100.00;98398.18;105770;1292;25438;-75
2023/03/12 01:08:54;;;;;;;19.00;11.30;;;;;;;8.74;100.00;98389.60;105791;1292;25438;-74
2023/03/12 01:11:22;;;;;;;23.80;12.50;;;;;;;8.74;100.00;98380.11;105810;1292;22557;-75
2023/03/12 01:13:52;;;;;;;21.30;12.20;;;;;;;8.74;100.00;98386.54;105679;1292;24275;-74
2023/03/12 01:16:21;;;;;;;20.80;11.50;;;;;;;8.73;100.00;98387.57;105662;1292;24207;-75
2023/03/12 01:18:49;;;;;;;24.10;11.60;;;;;;;8.73;100.00;98379.36;105764;1292;23881;-75
2023/03/12 01:21:18;;;;;;;23.90;12.90;;;;;;;8.73;100.00;98380.98;105821;1292;22725;-76
2023/03/12 01:23:47;;;;;;;22.50;12.80;;;;;;;8.72;100.00;98378.73;105770;1292;24295;-76
2023/03/12 01:26:15;;;;;;;22.30;13.50;;;;;;;8.72;100.00;98379.80;105846;1292;26617;-76
2023/03/12 01:28:44;;;;;;;26.80;13.80;;;;;;;8.71;100.00;98383.70;105760;1292;22579;-75
2023/03/12 01:31:14;;;;;;;27.30;14.30;;;;;;;8.71;100.00;98386.60;105669;1292;22756;-74
2023/03/12 01:33:44;;;;;;;22.20;12.90;;;;;;;8.70;100.00;98389.45;105805;1292;22571;-75
2023/03/12 01:36:24;;;;;;;27.30;14.60;;;;;;;8.70;100.00;98389.70;105697;1292;22568;-75
2023/03/12 01:38:53;;;;;;;25.00;13.00;;;;;;;8.68;100.00;98385.92;105838;1292;24260;-77
2023/03/12 01:41:23;;;;;;;26.40;13.10;;;;;;;8.68;100.00;98387.23;105654;1292;25442;-76
2023/03/12 01:43:52;;;;;;;21.30;11.50;;;;;;;8.67;100.00;98388.90;105665;1292;25434;-74
2023/03/12 01:46:25;;;;;;;22.70;11.60;;;;;;;8.67;100.00;98382.52;105836;1292;22546;-75
2023/03/12 01:49:09;;;;;;;24.10;12.40;;;;;;;8.67;100.00;98380.20;105740;1292;25390;-74
2023/03/12 01:51:46;;;;;;;25.30;12.30;;;;;;;8.66;100.00;98379.00;105660;1292;25325;-75
2023/03/12 01:54:40;;;;;;;19.50;10.40;;;;;;;8.66;100.00;98369.88;107649;1292;22546;-75
2023/03/12 01:57:14;;;;;;;22.30;11.90;;;;;;;8.65;100.00;98359.18;106947;1292;25449;-75
2023/03/12 01:59:48;;;;;;;26.70;13.80;;;;;;;8.66;100.00;98358.97;106296;1292;25986;-75
2023/03/12 02:02:22;;;;;;;26.90;14.50;;;;;;;8.66;100.00;98363.70;105775;1292;23827;-77
2023/03/12 02:04:57;;;;;;;28.90;15.70;;;;;;;8.67;100.00;98360.38;105800;1292;26002;-75
2023/03/12 02:07:26;;;;;;;26.70;14.10;;;;;;;8.66;100.00;98356.57;105656;1292;25379;-77
2023/03/12 02:09:58;;;;;;;24.80;13.80;;;;;;;8.66;100.00;98354.91;105752;1292;24366;-76
2023/03/12 02:12:27;;;;;;;25.70;13.20;;;;;;;8.67;100.00;98348.02;105755;1292;26716;-75
2023/03/12 02:14:56;;;;;;;21.30;11.10;;;;;;;8.67;100.00;98345.98;105730;1292;24188;-75
2023/03/12 02:17:25;;;;;;;23.80;10.90;;;;;;;8.68;100.00;98341.73;105722;1292;22557;-75
2023/03/12 02:19:54;;;;;;;18.60;9.70;;;;;;;8.68;100.00;98333.41;105441;1292;22561;-78
2023/03/12 02:22:22;;;;;;;21.70;9.80;;;;;;;8.68;100.00;98331.58;105703;1279;24053;-77
2023/03/12 02:24:55;;;;;;;;;;;;;;;8.68;100.00;98332.45;105563;1292;23802;-75
2023/03/12 02:27:24;;;;;;;14.70;8.00;;;;;;;8.67;100.00;98332.44;105594;1292;26593;-76
2023/03/12 02:29:53;;;;;;;15.90;8.30;;;;;;;8.63;100.00;98329.80;105729;1292;22542;-75
2023/03/12 02:32:31;;;;;;;16.50;8.50;;;;;;;8.61;100.00;98329.89;105613;1292;25438;-74
2023/03/12 02:35:01;;;;;;;15.30;8.60;;;;;;;8.59;100.00;98331.61;105812;1292;23789;-77
2023/03/12 02:37:29;;;;;;;16.00;7.90;;;;;;;8.58;100.00;98334.72;105733;1292;26649;-76
2023/03/12 02:40:06;;;;;;;17.30;8.70;;;;;;;8.54;100.00;98332.84;105722;1292;25435;-75
2023/03/12 02:42:35;;;;;;;17.90;8.70;;;;;;;8.50;100.00;98327.80;105756;1292;25383;-74
2023/03/12 02:45:05;;;;;;;17.40;9.20;;;;;;;8.47;100.00;98326.92;105481;1289;25378;-75
2023/03/12 02:47:33;;;;;;;19.10;9.00;;;;;;;8.46;100.00;98325.45;105931;1292;24288;-76
2023/03/12 02:50:02;;;;;;;17.30;8.30;;;;;;;8.44;100.00;98326.02;105855;1292;22546;-74
2023/03/12 02:52:34;;;;;;;16.40;8.80;;;;;;;8.42;100.00;98324.10;105938;1292;26520;-76
2023/03/12 02:55:09;;;;;;;18.70;8.70;;;;;;;8.41;100.00;98319.57;105779;1292;25385;-74
2023/03/12 02:57:39;;;;;;;16.30;8.50;;;;;;;8.40;100.00;98319.73;105859;1292;25504;-75
2023/03/12 03:00:11;;;;;;;19.30;9.20;;;;;;;8.38;100.00;98320.50;105933;1292;24242;-76
2023/03/12 03:02:43;;;;;;;17.90;8.90;;;;;;;8.36;100.00;98318.95;105800;1292;24379;-76
2023/03/12 03:05:12;;;;;;;17.40;8.50;;;;;;;8.35;100.00;98318.53;105870;1292;22545;-76
2023/03/12 03:07:41;;;;;;;18.90;9.50;;;;;;;8.33;100.00;98319.84;105792;1292;26506;-74
2023/03/12 03:10:10;;;;;;;16.40;8.70;;;;;;;8.31;100.00;98315.48;105902;1292;25434;-76
2023/03/12 03:12:39;;;;;;;19.50;9.60;;;;;;;8.29;100.00;98319.13;105798;1292;22731;-75
2023/03/12 03:15:12;;;;;;;17.70;8.50;;;;;;;8.27;100.00;98319.06;105883;1292;22548;-77
2023/03/12 03:17:44;;;;;;;17.30;8.70;;;;;;;8.25;100.00;98319.85;105595;1292;22552;-74
2023/03/12 03:20:13;;;;;;;17.80;8.80;;;;;;;8.23;100.00;98315.64;105815;1292;23882;-76
2023/03/12 03:22:42;;;;;;;13.50;7.50;;;;;;;8.21;100.00;98316.17;105768;1292;22534;-74
2023/03/12 03:25:11;;;;;;;14.10;7.20;;;;;;;8.19;100.00;98317.88;105888;1292;26655;-74
2023/03/12 03:27:40;;;;;;;12.20;6.50;;;;;;;8.17;100.00;98318.80;105793;1292;25402;-73
2023/03/12 03:30:10;;;;;;;11.70;5.50;;;;;;;8.15;100.00;98317.38;105871;1292;26668;-73
2023/03/12 03:32:42;;;;;;;8.90;5.00;;;;;;;8.13;100.00;98314.52;105834;1292;25629;-74
2023/03/12 03:35:14;;;;;;;9.60;4.90;;;;;;;8.10;100.00;98311.56;105884;1292;25445;-73
2023/03/12 03:37:43;;;;;;;7.20;4.50;;;;;;;8.08;100.00;98311.54;105624;1292;23792;-72
2023/03/12 03:40:13;;;;;;;6.40;4.10;;;;;;;8.06;100.00;98306.89;105786;1292;23882;-74
2023/03/12 03:42:42;;;;;;;7.50;4.60;;;;;;;8.03;100.00;98309.56;105890;1292;22546;-74
2023/03/12 03:45:12;;;;;;;6.80;4.30;;;;;;;8.01;100.00;98310.29;105867;1292;25461;-74
2023/03/12 03:47:41;;;;;;;6.60;4.20;;;;;;;7.99;100.00;98309.09;105847;1292;25400;-73
2023/03/12 03:50:12;;;;;;;8.00;4.00;;;;;;;7.99;100.00;98309.50;105949;1292;25980;-75
2023/03/12 03:52:41;;;;;;;7.80;4.50;;;;;;;7.98;100.00;98308.35;105665;1292;25736;-76
2023/03/12 03:55:10;;;;;;;5.60;4.00;;;;;;;7.96;100.00;98308.19;105809;1279;25440;-73
2023/03/12 03:57:39;;;;;;;4.90;3.80;;;;;;;7.95;100.00;98309.96;105968;1292;24188;-73
2023/03/12 04:00:11;;;;;;;4.70;3.50;;;;;;;7.95;100.00;98314.77;105963;1292;22555;-74
2023/03/12 04:02:45;;;;;;;7.30;4.10;;;;;;;7.95;100.00;98322.22;105961;1292;25478;-75
2023/03/12 04:05:18;;;;;;;7.00;3.60;;;;;;;7.95;100.00;98322.17;105836;1292;22609;-74
2023/03/12 04:07:48;;;;;;;4.40;3.60;;;;;;;7.95;100.00;98325.95;105983;1292;26512;-74
2023/03/12 04:10:20;;;;;;;6.60;4.00;;;;;;;7.95;100.00;98335.60;105963;1292;25321;-75
2023/03/12 04:12:51;;;;;;;5.20;3.60;;;;;;;7.97;100.00;98334.87;105836;1292;22555;-76
2023/03/12 04:15:22;;;;;;;5.20;3.40;;;;;;;7.99;100.00;98339.15;105871;1292;25468;-77
2023/03/12 04:17:52;;;;;;;5.40;3.60;;;;;;;8.01;100.00;98338.99;105829;1292;25448;-76
2023/03/12 04:20:21;;;;;;;5.30;3.50;;;;;;;8.03;100.00;98347.91;105842;1292;23786;-73
2023/03/12 04:22:50;;;;;;;7.30;3.80;;;;;;;8.06;100.00;98350.83;105769;1292;25375;-75
2023/03/12 04:25:19;;;;;;;5.00;3.70;;;;;;;8.08;100.00;98360.77;105960;1292;22856;-71
2023/03/12 04:27:48;;;;;;;5.40;3.10;;;;;;;8.10;100.00;98364.60;108069;1292;25463;-74
2023/03/12 04:30:17;;;;;;;3.50;2.90;;;;;;;8.13;100.00;98367.70;107049;1291;25950;-76
2023/03/12 04:32:46;;;;;;;4.30;3.20;;;;;;;8.15;100.00;98373.34;106154;1292;25448;-75
2023/03/12 04:35:18;;;;;;;7.00;3.20;;;;;;;8.17;100.00;98381.11;105902;1292;25461;-77
2023/03/12 04:37:48;;;;;;;3.20;2.90;;;;;;;8.19;100.00;98384.10;105866;1292;23790;-74
2023/03/12 04:40:18;;;;;;;3.40;2.80;;;;;;;8.21;100.00;98389.83;105914;1292;22991;-75
2023/03/12 04:42:48;;;;;;;3.10;2.80;;;;;;;8.23;100.00;98394.97;105840;1292;25324;-74
2023/03/12 04:45:16;;;;;;;3.10;2.80;;;;;;;8.25;100.00;98406.55;105745;1292;23132;-77
2023/03/12 04:47:50;;;;;;;3.20;2.80;;;;;;;8.27;100.00;98416.46;105857;1292;25455;-75
2023/03/12 04:50:19;;;;;;;5.50;3.00;;;;;;;8.29;100.00;98422.43;105900;1292;23869;-75
2023/03/12 04:52:49;;;;;;;2.80;2.40;;;;;;;8.32;100.00;98435.60;105198;1292;1003628;-74
2023/03/12 04:55:18;;;;;;;2.80;2.60;;;;;;;8.31;100.00;98450.84;105870;1292;25492;-76
2023/03/12 04:57:48;;;;;;;2.50;2.00;;;;;;;8.27;100.00;98466.55;105819;1277;25448;-75
2023/03/12 05:00:18;;;;;;;3.00;1.90;;;;;;;8.25;100.00;98491.43;105946;1292;25441;-74
2023/03/12 05:02:47;;;;;;;2.40;2.20;;;;;;;8.21;100.00;98497.99;105832;1292;26461;-76
2023/03/12 05:05:16;;;;;;;2.80;2.60;;;;;;;8.20;100.00;98509.78;105887;1292;22482;-75
2023/03/12 05:08:05;;;;;;;4.30;3.00;;;;;;;8.17;100.00;98514.23;105939;1292;22532;-74
2023/03/12 05:10:38;;;;;;;5.90;3.30;;;;;;;8.15;100.00;98518.31;105847;1292;25982;-74
2023/03/12 05:13:15;;;;;;;4.50;3.10;;;;;;;8.13;100.00;98525.21;105771;1292;22532;-76
2023/03/12 05:15:47;;;;;;;5.10;3.40;;;;;;;8.11;100.00;98519.05;106087;1292;25625;-74
2023/03/12 05:18:19;;;;;;;6.60;3.60;;;;;;;8.08;100.00;98507.89;105922;1292;24710;-75
2023/03/12 05:20:58;;;;;;;4.70;3.40;;;;;;;8.08;100.00;98474.75;105789;1292;25438;-77
2023/03/12 05:23:27;;;;;;;4.60;3.30;;;;;;;8.08;100.00;98486.27;106059;1292;25445;-83
2023/03/12 05:25:58;;;;;;;5.50;3.70;;;;;;;8.07;100.00;98524.15;107761;1292;22664;-82
2023/03/12 05:28:30;;;;;;;5.70;3.50;;;;;;;8.07;100.00;98554.05;107724;1292;24273;-84
2023/03/12 05:31:01;;;;;;;10.00;4.80;;;;;;;8.05;100.00;98570.00;107613;1292;22534;-83
2023/03/12 05:33:29;;;;;;;7.30;4.10;;;;;;;8.02;100.00;98586.39;107017;1292;23931;-85
2023/03/12 05:35:59;;;;;;;5.70;3.70;;;;;;;8.03;100.00;98594.89;107404;1292;22653;-85
2023/03/12 05:38:29;;;;;;;3.80;2.90;;;;;;;8.04;100.00;98602.52;107401;1292;22767;-85
2023/03/12 05:40:59;;;;;;;6.80;3.00;;;;;;;8.02;100.00;98605.36;107553;1291;22550;-84
2023/03/12 05:43:29;;;;;;;3.50;2.80;;;;;;;7.98;100.00;98606.57;107230;1292;22777;-82
2023/03/12 05:46:02;;;;;;;3.20;2.50;;;;;;;7.95;100.00;98609.04;107791;1292;22471;-81
2023/03/12 05:48:32;;;;;;;3.10;2.60;;;;;;;7.92;100.00;98607.56;107842;1292;23025;-85
2023/03/12 05:51:02;;;;;;;4.80;3.00;;;;;;;7.90;100.00;98613.55;108085;1292;22559;-85
2023/03/12 05:53:32;;;;;;;5.50;3.50;;;;;;;7.87;100.00;98618.85;107835;1292;22542;-82
2023/03/12 05:56:03;;;;;;;4.60;3.20;;;;;;;7.84;100.00;98634.00;107667;1292;22659;-83
2023/03/12 05:58:33;;;;;;;5.60;3.50;;;;;;;7.76;100.00;98635.98;107588;1292;24236;-81
2023/03/12 06:01:03;;;;;;;6.30;3.70;;;;;;;7.73;100.00;98631.39;107867;1292;24097;-85
2023/03/12 06:03:35;;;;;;;6.50;4.20;;;;;;;7.69;100.00;98626.86;107816;1292;22661;-83
2023/03/12 06:06:05;;;;;;;8.40;5.40;;;;;;;7.65;100.00;98624.85;107442;1286;25448;-82
2023/03/12 06:08:34;;;;;;;9.20;5.50;;;;;;;7.54;100.00;98613.64;107822;1292;225972;-82
2023/03/12 06:11:05;;;;;;;10.40;5.80;;;;;;;7.40;100.00;98598.25;107560;1292;23062;-81
2023/03/12 06:13:34;;;;;;;10.00;6.20;;;;;;;7.31;100.00;98577.83;107512;1292;24268;-82
2023/03/12 06:16:08;;;;;;;12.30;6.60;;;;;;;7.22;100.00;98559.57;107901;1292;22638;-83
2023/03/12 06:18:40;;;;;;;12.40;6.50;;;;;;;7.11;100.00;98539.49;108093;1292;22570;-81
2023/03/12 06:21:10;;;;;;;14.70;6.90;;;;;;;7.07;100.00;98517.88;107839;1292;1002528;-83
2023/03/12 06:23:40;;;;;;;12.30;7.00;;;;;;;7.01;100.00;98512.77;107806;1292;22556;-83
2023/03/12 06:26:13;;;;;;;15.10;7.90;;;;;;;6.98;100.00;98511.20;108197;1292;22542;-84
2023/03/12 06:28:45;;;;;;;18.30;8.30;;;;;;;6.87;100.00;98511.45;108281;1292;26101;-86
2023/03/12 06:31:16;;;;;;;16.00;7.50;;;;;;;6.74;100.00;98515.73;108087;1292;24421;-85
2023/03/12 06:33:48;;;;;;;13.10;6.90;;;;;;;6.62;100.00;98518.55;107811;1292;22692;-84
2023/03/12 06:36:18;;;;;;;15.00;7.60;;;;;;;6.52;100.00;98512.05;107427;1292;22588;-83
2023/03/12 06:38:47;;;;;;;14.00;7.70;;;;;;;6.47;100.00;98514.23;107533;1292;24208;-84
2023/03/12 06:41:19;;;;;;;17.60;9.10;;;;;;;6.43;100.00;98534.23;107582;1292;23018;-83
2023/03/12 06:43:49;;;;;;;16.20;8.90;;;;;;;6.42;100.00;98553.14;107405;1292;23459;-83
2023/03/12 06:46:24;;;;;;;17.60;8.90;;;;;;;6.44;100.00;98559.08;107688;1292;22675;-86
2023/03/12 06:48:54;;;;;;;14.80;8.30;;;;;;;6.43;100.00;98562.30;107207;1292;22550;-83
2023/03/12 06:51:22;;;;;;;18.20;10.10;;;;;;;6.46;100.00;98560.89;107529;1292;22591;-83
2023/03/12 06:53:56;;;;;;;18.90;10.20;;;;;;;6.41;100.00;98567.14;107702;1292;22961;-83
2023/03/12 06:56:27;;;;;;;15.80;9.30;;;;;;;6.36;100.00;98583.69;107530;1292;22537;-82
2023/03/12 06:58:58;;;;;;;15.50;8.40;;;;;;;6.37;100.00;98594.73;107743;1292;24416;-81
2023/03/12 07:01:28;;;;;;;14.60;8.70;;;;;;;6.35;100.00;98595.08;109600;1292;22233;-81
2023/03/12 07:03:58;;;;;;;15.30;8.80;;;;;;;6.33;100.00;98611.31;109065;1292;22537;-81
2023/03/12 07:06:29;;;;;;;15.30;8.60;;;;;;;6.30;100.00;98620.05;107972;1292;22539;-80
2023/03/12 07:09:04;;;;;;;14.10;8.00;;;;;;;6.25;100.00;98628.96;107550;1292;22532;-82
2023/03/12 07:11:36;;;;;;;14.50;8.30;;;;;;;6.17;100.00;98635.14;107341;1292;23910;-84
2023/03/12 07:14:06;;;;;;;13.00;8.00;;;;;;;6.15;100.00;98647.42;107571;1292;22081;-83
2023/03/12 07:16:36;;;;;;;13.50;8.30;;;;;;;6.12;100.00;98655.60;108078;1292;22684;-82
2023/03/12 07:19:08;;;;;;;14.20;8.20;;;;;;;6.11;100.00;98671.05;107750;1292;22558;-83
2023/03/12 07:21:38;;;;;;;11.70;7.50;;;;;;;6.08;100.00;98683.35;107578;1292;22548;-85
2023/03/12 07:24:11;;;;;;;12.20;7.50;;;;;;;6.04;100.00;98695.69;107659;1292;22893;-83
2023/03/12 07:26:42;;;;;;;11.70;7.10;;;;;;;6.02;100.00;98709.61;106752;1292;1003151;-81
2023/03/12 07:29:11;;;;;;;13.00;7.00;;;;;;;6.02;100.00;98725.35;107445;1292;23836;-82
2023/03/12 07:31:41;;;;;;;12.50;7.20;;;;;;;6.03;100.00;98740.60;107133;1292;25988;-82
2023/03/12 07:34:10;;;;;;;12.80;7.20;;;;;;;6.05;100.00;98744.14;107116;1292;22561;-81
2023/03/12 07:36:49;;;;;;;11.90;7.00;;;;;;;6.02;100.00;98761.88;107824;1286;22552;-82
2023/03/12 07:39:21;;;;;;;12.90;7.80;;;;;;;5.97;100.00;98773.72;107597;1292;22461;-81
2023/03/12 07:41:50;;;;;;;13.20;7.60;;;;;;;5.89;100.00;98784.23;107247;1292;23890;-80
2023/03/12 07:44:20;;;;;;;11.50;6.20;;;;;;;5.80;100.00;98799.33;107830;1292;22559;-81
2023/03/12 07:46:51;;;;;;;13.10;6.40;;;;;;;5.71;100.00;98807.09;107967;1292;23852;-85
2023/03/12 07:49:23;;;;;;;8.70;5.70;;;;;;;5.65;100.00;98815.02;107585;1292;22524;-81
2023/03/12 07:51:52;;;;;;;7.70;4.80;;;;;;;5.59;100.00;98825.98;107743;1292;22833;-84
2023/03/12 07:54:29;;;;;;;6.80;4.80;;;;;;;5.56;100.00;98840.94;107582;1292;22565;-82
2023/03/12 07:57:00;;;;;;;7.20;4.40;;;;;;;5.56;100.00;98848.66;107179;1292;21956;-82
2023/03/12 07:59:31;;;;;;;6.20;4.30;;;;;;;5.57;100.00;98874.48;107371;1292;23916;-83
2023/03/12 08:02:04;;;;;;;5.70;3.80;;;;;;;5.52;100.00;98890.03;107529;1293;22603;-84
2023/03/12 08:04:33;;;;;;;7.30;4.40;;;;;;;5.50;100.00;98905.73;107647;1293;24282;-81
2023/03/12 08:07:02;;;;;;;6.30;4.20;;;;;;;5.51;100.00;98925.52;107517;1293;22781;-79
2023/03/12 08:09:48;;;;;;;5.70;3.80;;;;;;;5.50;100.00;98936.21;107525;1293;22756;-82
2023/03/12 08:12:21;;;;;;;4.40;3.60;;;;;;;5.40;100.00;98954.09;107784;1293;22549;-83
2023/03/12 08:14:51;;;;;;;5.50;3.60;;;;;;;5.32;100.00;98972.94;107688;1293;22651;-81
2023/03/12 08:17:24;;;;;;;;;;;;;;;5.29;100.00;98992.09;107582;1293;22665;-82
2023/03/12 08:19:54;;;;;;;4.80;3.70;;;;;;;5.22;100.00;99012.08;106877;1293;22544;-81
2023/03/12 08:22:23;;;;;;;5.80;3.90;;;;;;;5.18;100.00;99029.02;107407;1293;23863;-82
2023/03/12 08:28:31;;;;;;;4.80;3.30;;;;;;;4.97;100.00;99031.14;108609;1277;22643;-79
2023/03/12 08:31:21;;;;;;;3.40;2.90;;;;;;;4.96;100.00;99064.64;107687;1295;22221;-82
2023/03/12 08:33:53;;;;;;;7.20;4.10;;;;;;;4.98;100.00;99085.64;107305;1296;22502;-80
2023/03/12 08:36:23;;;;;;;5.50;3.70;;;;;;;4.99;100.00;99098.04;107301;1295;22562;-83
2023/03/12 08:38:54;;;;;;;5.50;4.00;;;;;;;5.02;100.00;99107.95;107242;1296;22588;-82
2023/03/12 08:41:25;;;;;;;5.90;4.00;;;;;;;5.09;100.00;99120.84;107193;1296;22580;-82
2023/03/12 08:43:54;;;;;;;5.40;3.60;;;;;;;5.12;100.00;99127.27;107668;1296;22926;-82
2023/03/12 08:46:23;;;;;;;4.70;3.40;;;;;;;5.15;100.00;99148.08;107179;1296;22874;-80
2023/03/12 08:48:52;;;;;;;3.10;2.70;;;;;;;5.24;100.00;99155.17;106820;1296;22620;-82
2023/03/12 08:51:21;;;;;;;4.00;3.10;;;;;;;5.53;100.00;99163.27;106756;1273;22594;-80
2023/03/12 08:53:52;;;;;;;2.60;2.30;;;;;;;5.95;100.00;99162.22;107329;1296;22538;-82
2023/03/12 08:56:26;;;;;;;2.70;2.50;;;;;;;6.19;100.00;99172.46;106867;1296;24320;-79
2023/03/12 08:58:55;;;;;;;3.30;2.40;;;;;;;6.16;100.00;99192.09;106635;1296;23888;-81
2023/03/12 09:01:24;;;;;;;2.30;2.10;;;;;;;6.03;100.00;99221.06;107158;1296;22490;-80
2023/03/12 09:03:54;;;;;;;2.20;2.00;;;;;;;5.87;100.00;99241.62;106706;1296;23777;-81
2023/03/12 09:06:23;;;;;;;1.60;1.40;;;;;;;5.68;100.00;99265.59;107765;1296;22634;-79
2023/03/12 09:09:03;;;;;;;2.60;2.10;;;;;;;5.44;100.00;99291.59;106634;1296;25568;-78
2023/03/12 09:11:34;;;;;;;2.00;1.80;;;;;;;5.27;100.00;99306.76;106115;1296;23823;-78
2023/03/12 09:14:03;;;;;;;5.10;2.20;;;;;;;5.18;100.00;99326.65;106041;1296;24359;-79
2023/03/12 09:16:54;;;;;;;2.50;2.10;;;;;;;5.11;100.00;99341.18;105359;1296;1002590;-79
2023/03/12 09:19:24;;;;;;;3.90;2.40;;;;;;;5.06;100.00;99347.33;105966;1296;22559;-79
2023/03/12 09:21:54;;;;;;;3.20;2.20;;;;;;;5.02;100.00;99357.16;106271;1296;23892;-79
2023/03/12 09:24:23;;;;;;;1.70;1.60;;;;;;;4.93;100.00;99374.31;106377;1296;22503;-78
2023/03/12 09:26:52;;;;;;;2.00;1.90;;;;;;;4.81;100.00;99385.61;106233;1296;22820;-77
2023/03/12 09:29:22;;;;;;;3.20;2.10;;;;;;;4.69;100.00;99394.42;106276;1296;22497;-78
2023/03/12 09:31:52;;;;;;;1.60;1.50;;;;;;;4.58;100.00;99396.29;106394;1297;22554;-77
2023/03/12 09:34:22;;;;;;;2.90;2.10;;;;;;;4.49;100.00;99405.84;108616;1296;22668;-77
2023/03/12 09:36:51;;;;;;;2.50;2.10;;;;;;;4.49;100.00;99418.41;107419;1296;22575;-78
2023/03/12 09:39:21;;;;;;;2.50;2.20;;;;;;;4.40;100.00;99426.52;106398;1296;25449;-78
2023/03/12 09:41:50;;;;;;;2.30;2.10;;;;;;;4.28;100.00;99436.40;106086;1296;22565;-79
2023/03/12 09:44:36;;;;;;;3.70;2.30;;;;;;;4.22;100.00;99442.67;106280;1296;23895;-79
2023/03/12 09:47:22;;;;;;;2.90;2.10;;;;;;;4.19;100.00;99449.05;105989;1296;25455;-80
2023/03/12 09:49:55;;;;;;;4.00;2.00;;;;;;;4.17;100.00;99456.88;105795;1290;23921;-79
2023/03/12 09:52:35;;;;;;;3.10;2.40;;;;;;;4.14;100.00;99457.12;105917;1296;22674;-77
2023/03/12 09:55:13;;;;;;;2.40;2.20;;;;;;;4.08;100.00;99465.73;105940;1296;23019;-78
2023/03/12 09:57:43;;;;;;;2.30;2.10;;;;;;;4.04;100.00;99474.37;106021;1296;24213;-78
2023/03/12 10:00:15;;;;;;;2.90;2.20;;;;;;;4.05;100.00;99475.18;105968;1296;22482;-80
2023/03/12 10:03:01;;;;;;;3.80;2.40;;;;;;;3.98;100.00;99479.34;106069;1296;23995;-79
2023/03/12 10:05:37;;;;;;;3.80;2.50;;;;;;;3.88;100.00;99486.29;105743;1296;22542;-77
2023/03/12 10:08:24;;;;;;;2.40;2.00;;;;;;;3.90;100.00;99481.73;105750;1296;24316;-79
2023/03/12 10:11:21;;;;;;;3.20;2.30;;;;;;;3.91;100.00;99484.09;105568;1296;22821;-78
2023/03/12 10:14:26;;;;;;;3.80;2.20;;;;;;;3.97;100.00;99488.34;105853;1296;26513;-78
2023/03/12 10:17:05;;;;;;;2.40;2.20;;;;;;;4.01;100.00;99488.39;104269;1305;1002835;-77
2023/03/12 10:20:00;;;;;;;1.60;1.40;;;;;;;4.00;100.00;99483.09;105919;1297;22518;-79
2023/03/12 10:22:51;;;;;;;2.90;2.50;;;;;;;3.85;100.00;99494.46;105798;1296;22684;-80
2023/03/12 10:26:08;;;;;;;1.90;1.80;;;;;;;3.79;100.00;99499.76;106276;1296;22551;-78
2023/03/12 10:28:45;;;;;;;4.40;2.10;;;;;;;3.72;100.00;99504.70;106107;1296;25460;-79
2023/03/12 10:31:56;;;;;;;2.20;2.00;;;;;;;3.65;100.00;99512.16;105993;1296;22765;-80
2023/03/12 10:34:32;;;;;;;2.20;2.00;;;;;;;3.58;100.00;99527.69;105958;1296;23898;-77
2023/03/12 10:37:05;;;;;;;2.10;2.00;;;;;;;3.53;100.00;99536.94;105967;1296;22556;-80
2023/03/12 10:39:34;;;;;;;2.60;2.40;;;;;;;3.45;100.00;99537.27;105859;1296;22558;-77
2023/03/12 10:42:09;;;;;;;2.20;2.00;;;;;;;3.42;100.00;99548.94;105797;1296;22578;-78
2023/03/12 10:44:38;;;;;;;2.40;1.90;;;;;;;3.42;100.00;99549.82;105633;1296;23929;-78
2023/03/12 10:47:25;;;;;;;2.80;2.20;;;;;;;3.43;100.00;99549.25;105746;1296;25254;-79
2023/03/12 10:50:10;;;;;;;2.00;1.80;;;;;;;3.46;100.00;99565.03;105640;1296;26980;-79
2023/03/12 10:52:39;;;;;;;2.00;1.70;;;;;;;3.44;100.00;99564.17;106017;1296;22600;-76
2023/03/12 10:55:12;;;;;;;2.50;1.80;;;;;;;3.35;100.00;99565.58;105939;1296;22532;-78
2023/03/12 10:57:42;;;;;;;1.90;1.70;;;;;;;3.33;100.00;99572.55;105970;1296;25402;-78
2023/03/12 11:00:23;;;;;;;2.10;1.90;;;;;;;3.31;100.00;99577.02;105991;1296;23904;-76
2023/03/12 11:03:04;;;;;;;2.10;1.80;;;;;;;3.30;100.00;99585.81;106570;1296;24270;-81
2023/03/12 11:05:54;;;;;;;1.90;1.80;;;;;;;3.27;100.00;99587.73;106218;1296;22505;-78
2023/03/12 11:08:26;;;;;;;2.30;1.90;;;;;;;3.31;100.00;99595.75;105891;1296;23929;-78
2023/03/12 11:10:56;;;;;;;2.20;2.00;;;;;;;3.42;100.00;99591.88;105989;1296;22530;-78
2023/03/12 11:13:37;;;;;;;2.10;2.00;;;;;;;3.50;100.00;99597.08;106156;1296;26520;-76
2023/03/12 11:16:15;;;;;;;2.80;2.00;;;;;;;3.53;100.00;99600.52;106830;1297;22562;-78
2023/03/12 11:19:43;;;;;;;2.20;1.90;;;;;;;3.55;100.00;99610.73;106138;1296;22557;-77
2023/03/12 11:22:14;;;;;;;2.40;2.00;;;;;;;3.53;100.00;99607.34;106855;1296;24291;-79
2023/03/12 11:25:00;;;;;;;5.90;2.50;;;;;;;3.49;100.00;99613.38;106532;1296;22560;-79
2023/03/12 11:27:36;;;;;;;2.20;2.00;;;;;;;3.37;100.00;99625.63;106356;1297;23718;-79
2023/03/12 11:30:06;;;;;;;2.00;1.90;;;;;;;3.28;100.00;99626.48;105898;1297;23273;-78
2023/03/12 11:32:44;;;;;;;2.70;1.90;;;;;;;3.22;100.00;99625.16;105911;1297;23786;-80
2023/03/12 11:35:22;;;;;;;2.60;1.90;;;;;;;3.21;100.00;99625.82;105732;1297;25450;-79
2023/03/12 11:38:02;;;;;;;2.80;2.00;;;;;;;3.22;100.00;99623.19;105138;1297;1003035;-79
2023/03/12 11:40:43;;;;;;;2.50;2.00;;;;;;;3.23;100.00;99627.44;105808;1297;25953;-78
2023/03/12 11:43:40;;;;;;;2.10;1.70;;;;;;;3.20;100.00;99629.61;105702;1297;26657;-79
2023/03/12 11:46:25;;;;;;;1.80;1.70;;;;;;;3.19;100.00;99629.00;105597;1289;24259;-81
2023/03/12 11:49:12;;;;;;;2.00;1.80;;;;;;;3.18;100.00;99628.55;105602;1297;24233;-79